sensor_id;sensor_type;location;lat;lon;timestamp;pressure;altitude;pressure_sealevel;temperature;humidity
18765;BME280;9511;54.242;12.448;2023-12-07T04:05:18;101675.25;;;-1.73;100.00
18765;BME280;9511;54.242;12.448;2023-12-07T04:07:45;101674.47;;;-1.72;100.00
18765;BME280;9511;54.242;12.448;2023-12-07T04:10:12;101688.00;;;-1.66;100.00
18765;BME280;9511;54.242;12.448;2023-12-07T04:12:40;101682.16;;;-1.64;100.00
18765;BME280;9511;54.242;12.448;2023-12-07T04:15:08;101683.44;;;-1.69;100.00
18765;BME280;9511;54.242;12.448;2023-12-07T04:17:35;101677.34;;;-1.69;100.00
18765;BME280;9511;54.242;12.448;2023-12-07T04:20:03;101679.16;;;-1.68;100.00
18765;BME280;9511;54.242;12.448;2023-12-07T04:22:32;101679.16;;;-1.68;100.00
18765;BME280;9511;54.242;12.448;2023-12-07T04:24:59;101693.44;;;-1.63;100.00
18765;BME280;9511;54.242;12.448;2023-12-07T04:27:27;101691.88;;;-1.61;100.00
18765;BME280;9511;54.242;12.448;2023-12-07T04:29:54;101690.59;;;-1.56;100.00
18765;BME280;9511;54.242;12.448;2023-12-07T04:32:21;101687.06;;;-1.67;100.00
18765;BME280;9511;54.242;12.448;2023-12-07T04:34:48;101695.22;;;-1.72;100.00
18765;BME280;9511;54.242;12.448;2023-12-07T04:37:16;101693.81;;;-1.69;100.00
18765;BME280;9511;54.242;12.448;2023-12-07T04:39:44;101705.09;;;-1.68;100.00
18765;BME280;9511;54.242;12.448;2023-12-07T04:42:12;101698.63;;;-1.63;100.00
18765;BME280;9511;54.242;12.448;2023-12-07T04:44:39;101698.00;;;-1.61;100.00
18765;BME280;9511;54.242;12.448;2023-12-07T04:47:06;101703.44;;;-1.57;100.00
18765;BME280;9511;54.242;12.448;2023-12-07T04:49:33;101706.91;;;-1.67;100.00
18765;BME280;9511;54.242;12.448;2023-12-07T04:52:00;101695.41;;;-1.61;100.00
18765;BME280;9511;54.242;12.448;2023-12-07T04:54:28;101706.16;;;-1.56;100.00
18765;BME280;9511;54.242;12.448;2023-12-07T04:56:56;101714.50;;;-1.50;100.00
18765;BME280;9511;54.242;12.448;2023-12-07T04:59:24;101708.63;;;-1.57;100.00
18765;BME280;9511;54.242;12.448;2023-12-07T05:01:51;101712.25;;;-1.55;100.00
18765;BME280;9511;54.242;12.448;2023-12-07T05:04:19;101710.75;;;-1.53;100.00
18765;BME280;9511;54.242;12.448;2023-12-07T05:06:46;101710.56;;;-1.55;100.00
18765;BME280;9511;54.242;12.448;2023-12-07T05:09:13;101701.81;;;-1.47;100.00
18765;BME280;9511;54.242;12.448;2023-12-07T05:11:41;101703.50;;;-1.47;100.00
18765;BME280;9511;54.242;12.448;2023-12-07T05:14:12;101706.72;;;-1.50;100.00
18765;BME280;9511;54.242;12.448;2023-12-07T05:16:40;101716.06;;;-1.52;100.00
18765;BME280;9511;54.242;12.448;2023-12-07T05:19:07;101713.75;;;-1.49;100.00
18765;BME280;9511;54.242;12.448;2023-12-07T05:21:34;101717.50;;;-1.45;100.00
18765;BME280;9511;54.242;12.448;2023-12-07T05:24:02;101716.47;;;-1.47;100.00
18765;BME280;9511;54.242;12.448;2023-12-07T05:26:29;101707.25;;;-1.44;100.00
18765;BME280;9511;54.242;12.448;2023-12-07T05:28:58;101710.91;;;-1.42;100.00
18765;BME280;9511;54.242;12.448;2023-12-07T05:31:27;101715.31;;;-1.41;100.00
18765;BME280;9511;54.242;12.448;2023-12-07T05:33:55;101712.47;;;-1.34;100.00
18765;BME280;9511;54.242;12.448;2023-12-07T05:36:22;101711.16;;;-1.39;100.00
18765;BME280;9511;54.242;12.448;2023-12-07T05:38:49;101717.66;;;-1.34;100.00
18765;BME280;9511;54.242;12.448;2023-12-07T05:41:16;101722.34;;;-1.29;100.00
18765;BME280;9511;54.242;12.448;2023-12-07T05:43:44;101723.38;;;-1.27;100.00
18765;BME280;9511;54.242;12.448;2023-12-07T05:46:11;101730.03;;;-1.21;100.00
18765;BME280;9511;54.242;12.448;2023-12-07T05:48:40;101732.38;;;-1.24;100.00
18765;BME280;9511;54.242;12.448;2023-12-07T05:51:12;101728.16;;;-1.32;100.00
18765;BME280;9511;54.242;12.448;2023-12-07T05:53:39;101730.91;;;-1.30;100.00
18765;BME280;9511;54.242;12.448;2023-12-07T05:56:07;101730.00;;;-1.31;100.00
18765;BME280;9511;54.242;12.448;2023-12-07T05:58:34;101730.91;;;-1.30;100.00
18765;BME280;9511;54.242;12.448;2023-12-07T06:01:02;101730.13;;;-1.29;100.00
18765;BME280;9511;54.242;12.448;2023-12-07T06:03:30;101722.06;;;-1.33;100.00
18765;BME280;9511;54.242;12.448;2023-12-07T06:05:59;101732.75;;;-1.29;100.00
18765;BME280;9511;54.242;12.448;2023-12-07T06:08:26;101721.31;;;-1.31;100.00
18765;BME280;9511;54.242;12.448;2023-12-07T06:10:54;101727.13;;;-1.34;100.00
18765;BME280;9511;54.242;12.448;2023-12-07T06:13:22;101722.97;;;-1.32;100.00
18765;BME280;9511;54.242;12.448;2023-12-07T06:15:50;101720.00;;;-1.37;100.00
18765;BME280;9511;54.242;12.448;2023-12-07T06:18:17;101736.13;;;-1.30;100.00
18765;BME280;9511;54.242;12.448;2023-12-07T06:20:44;101729.34;;;-1.28;100.00
18765;BME280;9511;54.242;12.448;2023-12-07T06:23:13;101731.81;;;-1.30;100.00
18765;BME280;9511;54.242;12.448;2023-12-07T06:25:40;101727.97;;;-1.25;100.00
18765;BME280;9511;54.242;12.448;2023-12-07T06:28:08;101728.09;;;-1.23;100.00
18765;BME280;9511;54.242;12.448;2023-12-07T06:30:35;101726.13;;;-1.26;100.00
18765;BME280;9511;54.242;12.448;2023-12-07T06:33:02;101723.66;;;-1.24;100.00
18765;BME280;9511;54.242;12.448;2023-12-07T06:35:30;101722.75;;;-1.25;100.00
18765;BME280;9511;54.242;12.448;2023-12-07T06:37:57;101730.19;;;-1.19;100.00
18765;BME280;9511;54.242;12.448;2023-12-07T06:40:26;101729.91;;;-1.22;100.00
18765;BME280;9511;54.242;12.448;2023-12-07T06:42:53;101738.88;;;-1.19;100.00
18765;BME280;9511;54.242;12.448;2023-12-07T06:45:20;101738.22;;;-1.16;100.00
18765;BME280;9511;54.242;12.448;2023-12-07T06:47:48;101735.91;;;-1.13;100.00
18765;BME280;9511;54.242;12.448;2023-12-07T06:50:15;101745.63;;;-1.11;100.00
18765;BME280;9511;54.242;12.448;2023-12-07T06:52:42;101740.56;;;-1.09;100.00
18765;BME280;9511;54.242;12.448;2023-12-07T06:55:11;101750.94;;;-1.09;100.00
18765;BME280;9511;54.242;12.448;2023-12-07T06:57:39;101749.91;;;-1.11;100.00
18765;BME280;9511;54.242;12.448;2023-12-07T07:00:07;101751.22;;;-1.06;100.00
18765;BME280;9511;54.242;12.448;2023-12-07T07:02:37;101754.06;;;-1.13;100.00
18765;BME280;9511;54.242;12.448;2023-12-07T07:05:05;101757.06;;;-1.09;100.00
18765;BME280;9511;54.242;12.448;2023-12-07T07:07:32;101754.47;;;-1.09;100.00
18765;BME280;9511;54.242;12.448;2023-12-07T07:10:00;101759.69;;;-1.09;100.00
18765;BME280;9511;54.242;12.448;2023-12-07T07:12:27;101759.81;;;-1.07;100.00
18765;BME280;9511;54.242;12.448;2023-12-07T07:14:59;101759.03;;;-1.06;100.00
18765;BME280;9511;54.242;12.448;2023-12-07T07:17:27;101758.94;;;-0.97;100.00
18765;BME280;9511;54.242;12.448;2023-12-07T07:19:55;101767.09;;;-0.93;100.00
18765;BME280;9511;54.242;12.448;2023-12-07T07:22:22;101755.53;;;-0.86;100.00
18765;BME280;9511;54.242;12.448;2023-12-07T07:24:49;101754.53;;;-0.78;100.00
18765;BME280;9511;54.242;12.448;2023-12-07T07:27:17;101753.13;;;-0.74;100.00
18765;BME280;9511;54.242;12.448;2023-12-07T07:29:44;101754.66;;;-0.76;100.00
18765;BME280;9511;54.242;12.448;2023-12-07T07:32:13;101760.50;;;-0.79;100.00
18765;BME280;9511;54.242;12.448;2023-12-07T07:34:42;101752.34;;;-0.73;100.00
18765;BME280;9511;54.242;12.448;2023-12-07T07:37:09;101750.75;;;-0.82;100.00
18765;BME280;9511;54.242;12.448;2023-12-07T07:39:36;101750.13;;;-0.79;100.00
18765;BME280;9511;54.242;12.448;2023-12-07T07:42:04;101751.03;;;-0.78;100.00
18765;BME280;9511;54.242;12.448;2023-12-07T07:44:31;101759.59;;;-0.69;100.00
18765;BME280;9511;54.242;12.448;2023-12-07T07:46:59;101762.47;;;-0.66;100.00
18765;BME280;9511;54.242;12.448;2023-12-07T07:49:27;101764.56;;;-0.62;100.00
18765;BME280;9511;54.242;12.448;2023-12-07T07:51:55;101760.91;;;-0.64;100.00
18765;BME280;9511;54.242;12.448;2023-12-07T07:54:22;101758.16;;;-0.66;100.00
18765;BME280;9511;54.242;12.448;2023-12-07T07:56:49;101759.59;;;-0.69;100.00
18765;BME280;9511;54.242;12.448;2023-12-07T07:59:16;101764.78;;;-0.69;100.00
18765;BME280;9511;54.242;12.448;2023-12-07T08:01:45;101770.63;;;-0.72;100.00
18765;BME280;9511;54.242;12.448;2023-12-07T08:04:13;101776.34;;;-0.66;100.00
18765;BME280;9511;54.242;12.448;2023-12-07T08:06:41;101774.41;;;-0.68;100.00
18765;BME280;9511;54.242;12.448;2023-12-07T08:09:08;101776.47;;;-0.64;100.00
18765;BME280;9511;54.242;12.448;2023-12-07T08:11:36;101771.56;;;-0.61;100.00
18765;BME280;9511;54.242;12.448;2023-12-07T08:14:03;101778.56;;;-0.60;100.00
18765;BME280;9511;54.242;12.448;2023-12-07T08:16:30;101778.72;;;-0.69;100.00
18765;BME280;9511;54.242;12.448;2023-12-07T08:18:57;101778.97;;;-0.66;100.00
18765;BME280;9511;54.242;12.448;2023-12-07T08:21:25;101781.31;;;-0.69;100.00
18765;BME280;9511;54.242;12.448;2023-12-07T08:23:54;101783.50;;;-0.63;100.00
18765;BME280;9511;54.242;12.448;2023-12-07T08:26:22;101777.25;;;-0.65;100.00
18765;BME280;9511;54.242;12.448;2023-12-07T08:28:49;101780.78;;;-0.65;100.00
18765;BME280;9511;54.242;12.448;2023-12-07T08:31:20;101777.53;;;-0.62;100.00
18765;BME280;9511;54.242;12.448;2023-12-07T08:33:49;101781.16;;;-0.60;100.00
18765;BME280;9511;54.242;12.448;2023-12-07T08:36:16;101781.97;;;-0.61;100.00
18765;BME280;9511;54.242;12.448;2023-12-07T08:38:43;101786.50;;;-0.59;100.00
18765;BME280;9511;54.242;12.448;2023-12-07T08:41:12;101781.44;;;-0.67;100.00
18765;BME280;9511;54.242;12.448;2023-12-07T08:43:39;101778.28;;;-0.63;100.00
18765;BME280;9511;54.242;12.448;2023-12-07T08:46:06;101784.06;;;-0.57;100.00
18765;BME280;9511;54.242;12.448;2023-12-07T08:48:35;101777.28;;;-0.55;100.00
18765;BME280;9511;54.242;12.448;2023-12-07T08:51:03;101773.91;;;-0.54;100.00
18765;BME280;9511;54.242;12.448;2023-12-07T08:53:30;101780.13;;;-0.52;100.00
18765;BME280;9511;54.242;12.448;2023-12-07T08:55:57;101779.63;;;-0.48;100.00
18765;BME280;9511;54.242;12.448;2023-12-07T08:58:26;101783.28;;;-0.46;100.00
18765;BME280;9511;54.242;12.448;2023-12-07T09:00:53;101792.38;;;-0.51;100.00
18765;BME280;9511;54.242;12.448;2023-12-07T09:03:21;101792.72;;;-0.46;100.00
18765;BME280;9511;54.242;12.448;2023-12-07T09:05:51;101789.13;;;-0.38;100.00
18765;BME280;9511;54.242;12.448;2023-12-07T09:08:18;101788.06;;;-0.40;100.00
18765;BME280;9511;54.242;12.448;2023-12-07T09:10:46;101787.94;;;-0.32;100.00
18765;BME280;9511;54.242;12.448;2023-12-07T09:13:15;101799.13;;;-0.43;100.00
18765;BME280;9511;54.242;12.448;2023-12-07T09:15:44;101793.94;;;-0.33;100.00
18765;BME280;9511;54.242;12.448;2023-12-07T09:18:11;101798.06;;;-0.35;100.00
18765;BME280;9511;54.242;12.448;2023-12-07T09:20:39;101805.34;;;-0.31;100.00
18765;BME280;9511;54.242;12.448;2023-12-07T09:23:11;101809.53;;;-0.33;100.00
18765;BME280;9511;54.242;12.448;2023-12-07T09:25:41;101811.75;;;-0.27;100.00
18765;BME280;9511;54.242;12.448;2023-12-07T09:28:08;101812.38;;;-0.19;100.00
18765;BME280;9511;54.242;12.448;2023-12-07T09:30:35;101817.97;;;-0.15;100.00
18765;BME280;9511;54.242;12.448;2023-12-07T09:33:04;101823.81;;;-0.17;100.00
18765;BME280;9511;54.242;12.448;2023-12-07T09:35:31;101828.09;;;-0.18;100.00
18765;BME280;9511;54.242;12.448;2023-12-07T09:38:00;101822.00;;;-0.08;100.00
18765;BME280;9511;54.242;12.448;2023-12-07T09:40:27;101818.09;;;-0.03;100.00
18765;BME280;9511;54.242;12.448;2023-12-07T09:42:54;101817.31;;;-0.02;100.00
18765;BME280;9511;54.242;12.448;2023-12-07T09:45:22;101837.47;;;0.01;100.00
18765;BME280;9511;54.242;12.448;2023-12-07T09:47:50;101828.34;;;0.06;100.00
18765;BME280;9511;54.242;12.448;2023-12-07T09:50:20;101828.22;;;0.04;100.00
18765;BME280;9511;54.242;12.448;2023-12-07T09:52:49;101825.78;;;-0.05;100.00
18765;BME280;9511;54.242;12.448;2023-12-07T09:55:17;101834.22;;;-0.07;100.00
18765;BME280;9511;54.242;12.448;2023-12-07T09:57:45;101828.63;;;-0.12;100.00
18765;BME280;9511;54.242;12.448;2023-12-07T10:00:13;101827.72;;;-0.02;100.00
18765;BME280;9511;54.242;12.448;2023-12-07T10:02:42;101827.44;;;0.05;100.00
18765;BME280;9511;54.242;12.448;2023-12-07T10:05:10;101822.50;;;0.08;100.00
18765;BME280;9511;54.242;12.448;2023-12-07T10:07:41;101831.09;;;0.07;100.00
18765;BME280;9511;54.242;12.448;2023-12-07T10:10:09;101826.28;;;0.02;100.00
18765;BME280;9511;54.242;12.448;2023-12-07T10:12:44;101825.38;;;0.01;100.00
18765;BME280;9511;54.242;12.448;2023-12-07T10:15:14;101823.81;;;0.03;100.00
18765;BME280;9511;54.242;12.448;2023-12-07T10:17:47;101821.72;;;-0.01;100.00
18765;BME280;9511;54.242;12.448;2023-12-07T10:20:16;101817.31;;;0.08;100.00
18765;BME280;9511;54.242;12.448;2023-12-07T10:22:45;101819.78;;;0.07;100.00
18765;BME280;9511;54.242;12.448;2023-12-07T10:25:13;101814.44;;;0.05;100.00
18765;BME280;9511;54.242;12.448;2023-12-07T10:27:41;101816.00;;;0.03;100.00
18765;BME280;9511;54.242;12.448;2023-12-07T10:30:10;101827.19;;;0.02;100.00
18765;BME280;9511;54.242;12.448;2023-12-07T10:32:38;101816.69;;;0.01;100.00
18765;BME280;9511;54.242;12.448;2023-12-07T10:35:07;101819.78;;;0.07;100.00
18765;BME280;9511;54.242;12.448;2023-12-07T10:37:36;101825.50;;;0.03;100.00
18765;BME280;9511;54.242;12.448;2023-12-07T10:40:06;101821.72;;;-0.01;100.00
18765;BME280;9511;54.242;12.448;2023-12-07T10:42:34;101822.50;;;-0.02;100.00
18765;BME280;9511;54.242;12.448;2023-12-07T10:45:06;101820.19;;;0.01;100.00
18765;BME280;9511;54.242;12.448;2023-12-07T10:47:37;101820.19;;;0.01;100.00
18765;BME280;9511;54.242;12.448;2023-12-07T10:50:07;101823.81;;;0.03;100.00
18765;BME280;9511;54.242;12.448;2023-12-07T10:52:41;101822.63;;;0.10;100.00
18765;BME280;9511;54.242;12.448;2023-12-07T10:55:16;101819.00;;;0.08;100.00
18765;BME280;9511;54.242;12.448;2023-12-07T10:57:44;101825.50;;;0.13;100.00
18765;BME280;9511;54.242;12.448;2023-12-07T11:00:14;101822.22;;;0.05;100.00
18765;BME280;9511;54.242;12.448;2023-12-07T11:02:42;101813.53;;;0.05;100.00
18765;BME280;9511;54.242;12.448;2023-12-07T11:05:10;101817.59;;;0.01;100.00
18765;BME280;9511;54.242;12.448;2023-12-07T11:07:50;101817.94;;;0.06;100.00
18765;BME280;9511;54.242;12.448;2023-12-07T11:10:27;101821.47;;;0.06;100.00
18765;BME280;9511;54.242;12.448;2023-12-07T11:13:09;101815.88;;;0.02;100.00
18765;BME280;9511;54.242;12.448;2023-12-07T11:15:39;101817.81;;;0.04;100.00
18765;BME280;9511;54.242;12.448;2023-12-07T11:18:06;101820.19;;;0.01;100.00
18765;BME280;9511;54.242;12.448;2023-12-07T11:20:39;101817.94;;;0.06;100.00
18765;BME280;9511;54.242;12.448;2023-12-07T11:23:08;101810.00;;;0.04;100.00
18765;BME280;9511;54.242;12.448;2023-12-07T11:25:37;101806.50;;;0.04;100.00
18765;BME280;9511;54.242;12.448;2023-12-07T11:28:06;101816.13;;;0.05;100.00
18765;BME280;9511;54.242;12.448;2023-12-07T11:30:35;101806.78;;;-0.04;100.00
18765;BME280;9511;54.242;12.448;2023-12-07T11:33:04;101812.63;;;-0.06;100.00
18765;BME280;9511;54.242;12.448;2023-12-07T11:35:31;101812.63;;;-0.06;100.00
18765;BME280;9511;54.242;12.448;2023-12-07T11:38:04;101811.88;;;-0.05;100.00
18765;BME280;9511;54.242;12.448;2023-12-07T11:40:35;101816.28;;;-0.04;100.00
18765;BME280;9511;54.242;12.448;2023-12-07T11:43:03;101811.31;;;-0.01;100.00
18765;BME280;9511;54.242;12.448;2023-12-07T11:45:38;101810.81;;;0.03;100.00
18765;BME280;9511;54.242;12.448;2023-12-07T11:48:10;101810.00;;;0.04;100.00
18765;BME280;9511;54.242;12.448;2023-12-07T11:51:08;101827.31;;;-0.07;100.00
18765;BME280;9511;54.242;12.448;2023-12-07T11:53:37;101816.13;;;0.05;100.00
18765;BME280;9511;54.242;12.448;2023-12-07T11:56:06;101813.00;;;0.09;100.00
18765;BME280;9511;54.242;12.448;2023-12-07T11:58:36;101812.63;;;0.14;100.00
18765;BME280;9511;54.242;12.448;2023-12-07T12:01:04;101811.31;;;0.09;100.00
18765;BME280;9511;54.242;12.448;2023-12-07T12:03:33;101817.94;;;0.06;100.00
18765;BME280;9511;54.242;12.448;2023-12-07T12:06:03;101816.41;;;0.08;100.00
18765;BME280;9511;54.242;12.448;2023-12-07T12:08:31;101818.31;;;0.10;100.00
18765;BME280;9511;54.242;12.448;2023-12-07T12:10:58;101818.59;;;0.03;100.00
18765;BME280;9511;54.242;12.448;2023-12-07T12:13:27;101809.63;;;0.10;100.00
18765;BME280;9511;54.242;12.448;2023-12-07T12:15:56;101808.44;;;0.16;100.00
18765;BME280;9511;54.242;12.448;2023-12-07T12:18:24;101802.22;;;0.14;100.00
18765;BME280;9511;54.242;12.448;2023-12-07T12:20:52;101808.59;;;0.18;100.00
18765;BME280;9511;54.242;12.448;2023-12-07T12:23:20;101807.91;;;0.20;100.00
18765;BME280;9511;54.242;12.448;2023-12-07T12:25:47;101799.81;;;0.28;100.00
18765;BME280;9511;54.242;12.448;2023-12-07T12:28:16;101805.41;;;0.32;100.00
18765;BME280;9511;54.242;12.448;2023-12-07T12:30:45;101805.81;;;0.37;100.00
18765;BME280;9511;54.242;12.448;2023-12-07T12:33:14;101800.31;;;0.34;100.00
18765;BME280;9511;54.242;12.448;2023-12-07T12:35:41;101802.41;;;0.38;100.00
18765;BME280;9511;54.242;12.448;2023-12-07T12:38:09;101802.19;;;0.35;100.00
18765;BME280;9511;54.242;12.448;2023-12-07T12:40:36;101800.44;;;0.45;100.00
18765;BME280;9511;54.242;12.448;2023-12-07T12:43:04;101795.63;;;0.40;100.00
18765;BME280;9511;54.242;12.448;2023-12-07T12:45:33;101797.47;;;0.41;100.00
18765;BME280;9511;54.242;12.448;2023-12-07T12:48:00;101798.91;;;0.37;100.00
18765;BME280;9511;54.242;12.448;2023-12-07T12:50:37;101802.91;;;0.44;100.00
18765;BME280;9511;54.242;12.448;2023-12-07T12:53:07;101795.91;;;0.43;100.00
18765;BME280;9511;54.242;12.448;2023-12-07T12:55:35;101798.88;;;0.47;100.00
18765;BME280;9511;54.242;12.448;2023-12-07T12:58:03;101798.69;;;0.56;100.00
18765;BME280;9511;54.242;12.448;2023-12-07T13:00:31;101806.41;;;0.55;100.00
18765;BME280;9511;54.242;12.448;2023-12-07T13:03:00;101806.81;;;0.49;100.00
18765;BME280;9511;54.242;12.448;2023-12-07T13:05:29;101809.69;;;0.42;100.00
18765;BME280;9511;54.242;12.448;2023-12-07T13:07:57;101812.19;;;0.40;100.00
18765;BME280;9511;54.242;12.448;2023-12-07T13:10:25;101817.38;;;0.40;100.00
18765;BME280;9511;54.242;12.448;2023-12-07T13:12:53;101814.63;;;0.39;100.00
18765;BME280;9511;54.242;12.448;2023-12-07T13:15:22;101815.59;;;0.29;100.00
18765;BME280;9511;54.242;12.448;2023-12-07T13:17:50;101808.53;;;0.28;100.00
18765;BME280;9511;54.242;12.448;2023-12-07T13:20:17;101818.94;;;0.28;100.00
18765;BME280;9511;54.242;12.448;2023-12-07T13:22:45;101811.81;;;0.25;100.00
18765;BME280;9511;54.242;12.448;2023-12-07T13:25:13;101813.63;;;0.26;100.00
18765;BME280;9511;54.242;12.448;2023-12-07T13:27:41;101812.72;;;0.26;100.00
18765;BME280;9511;54.242;12.448;2023-12-07T13:30:09;101811.31;;;0.19;100.00
18765;BME280;9511;54.242;12.448;2023-12-07T13:32:37;101808.41;;;0.26;100.00
18765;BME280;9511;54.242;12.448;2023-12-07T13:35:04;101808.41;;;0.26;100.00
18765;BME280;9511;54.242;12.448;2023-12-07T13:37:32;101809.22;;;0.15;100.00
18765;BME280;9511;54.242;12.448;2023-12-07T13:40:00;101812.88;;;0.17;100.00
18765;BME280;9511;54.242;12.448;2023-12-07T13:42:31;101814.69;;;0.18;100.00
18765;BME280;9511;54.242;12.448;2023-12-07T13:44:58;101819.00;;;0.18;100.00
18765;BME280;9511;54.242;12.448;2023-12-07T13:47:27;101803.78;;;0.12;100.00
18765;BME280;9511;54.242;12.448;2023-12-07T13:49:57;101813.00;;;0.09;100.00
18765;BME280;9511;54.242;12.448;2023-12-07T13:52:25;101808.72;;;0.09;100.00
18765;BME280;9511;54.242;12.448;2023-12-07T13:54:54;101816.50;;;0.09;100.00
18765;BME280;9511;54.242;12.448;2023-12-07T13:57:22;101808.84;;;0.11;100.00
18765;BME280;9511;54.242;12.448;2023-12-07T13:59:52;101807.13;;;0.11;100.00
18765;BME280;9511;54.242;12.448;2023-12-07T14:02:20;101803.00;;;0.03;100.00
18765;BME280;9511;54.242;12.448;2023-12-07T14:04:47;101811.44;;;0.11;100.00
18765;BME280;9511;54.242;12.448;2023-12-07T14:07:17;101817.69;;;0.13;100.00
18765;BME280;9511;54.242;12.448;2023-12-07T14:09:47;101809.50;;;0.08;100.00
18765;BME280;9511;54.242;12.448;2023-12-07T14:12:15;101806.91;;;0.08;100.00
18765;BME280;9511;54.242;12.448;2023-12-07T14:14:44;101807.13;;;0.11;100.00
18765;BME280;9511;54.242;12.448;2023-12-07T14:17:14;101815.09;;;0.13;100.00
18765;BME280;9511;54.242;12.448;2023-12-07T14:19:42;101812.63;;;0.14;100.00
18765;BME280;9511;54.242;12.448;2023-12-07T14:22:09;101814.69;;;0.18;100.00
18765;BME280;9511;54.242;12.448;2023-12-07T14:24:37;101812.09;;;0.18;100.00
18765;BME280;9511;54.242;12.448;2023-12-07T14:27:05;101822.63;;;0.20;100.00
18765;BME280;9511;54.242;12.448;2023-12-07T14:29:33;101812.09;;;0.08;100.00
18765;BME280;9511;54.242;12.448;2023-12-07T14:32:00;101814.72;;;0.08;100.00
18765;BME280;9511;54.242;12.448;2023-12-07T14:34:29;101810.53;;;0.10;100.00
18765;BME280;9511;54.242;12.448;2023-12-07T14:36:56;101810.28;;;0.07;100.00
18765;BME280;9511;54.242;12.448;2023-12-07T14:39:23;101808.72;;;0.09;100.00
18765;BME280;9511;54.242;12.448;2023-12-07T14:41:50;101809.22;;;0.05;100.00
18765;BME280;9511;54.242;12.448;2023-12-07T14:44:18;101814.59;;;0.07;100.00
18765;BME280;9511;54.242;12.448;2023-12-07T14:46:46;101813.53;;;0.05;100.00
18765;BME280;9511;54.242;12.448;2023-12-07T14:49:15;101808.31;;;0.05;100.00
18765;BME280;9511;54.242;12.448;2023-12-07T14:51:44;101816.13;;;0.05;100.00
18765;BME280;9511;54.242;12.448;2023-12-07T14:54:11;101815.63;;;0.09;100.00
18765;BME280;9511;54.242;12.448;2023-12-07T14:56:39;101806.22;;;0.11;100.00
18765;BME280;9511;54.242;12.448;2023-12-07T14:59:07;101803.28;;;0.06;100.00
18765;BME280;9511;54.242;12.448;2023-12-07T15:01:37;101800.28;;;0.02;100.00
18765;BME280;9511;54.242;12.448;2023-12-07T15:04:04;101796.22;;;0.05;100.00
18765;BME280;9511;54.242;12.448;2023-12-07T15:06:32;101802.34;;;0.06;100.00
18765;BME280;9511;54.242;12.448;2023-12-07T15:09:01;101808.19;;;0.03;100.00
18765;BME280;9511;54.242;12.448;2023-12-07T15:11:31;101808.34;;;-0.06;100.00
18765;BME280;9511;54.242;12.448;2023-12-07T15:13:59;101795.34;;;-0.06;100.00
18765;BME280;9511;54.242;12.448;2023-12-07T15:16:26;101794.56;;;-0.05;100.00
18765;BME280;9511;54.242;12.448;2023-12-07T15:18:53;101797.28;;;-0.03;100.00
18765;BME280;9511;54.242;12.448;2023-12-07T15:21:21;101796.38;;;-0.04;100.00
18765;BME280;9511;54.242;12.448;2023-12-07T15:23:49;101796.09;;;-0.07;100.00
18765;BME280;9511;54.242;12.448;2023-12-07T15:26:18;101795.06;;;0.02;100.00
18765;BME280;9511;54.242;12.448;2023-12-07T15:28:45;101797.00;;;-0.06;100.00
18765;BME280;9511;54.242;12.448;2023-12-07T15:31:12;101796.50;;;-0.02;100.00
18765;BME280;9511;54.242;12.448;2023-12-07T15:33:39;101800.16;;;0.00;100.00
18765;BME280;9511;54.242;12.448;2023-12-07T15:36:07;101804.31;;;-0.02;100.00
18765;BME280;9511;54.242;12.448;2023-12-07T15:38:34;101797.00;;;-0.06;100.00
18765;BME280;9511;54.242;12.448;2023-12-07T15:41:02;101799.63;;;-0.06;100.00
18765;BME280;9511;54.242;12.448;2023-12-07T15:43:31;101794.28;;;-0.08;100.00
18765;BME280;9511;54.242;12.448;2023-12-07T15:45:59;101793.66;;;-0.05;100.00
18765;BME280;9511;54.242;12.448;2023-12-07T15:48:26;101795.47;;;-0.04;100.00
18765;BME280;9511;54.242;12.448;2023-12-07T15:50:53;101796.38;;;-0.04;100.00
18765;BME280;9511;54.242;12.448;2023-12-07T15:53:21;101798.88;;;-0.05;100.00
18765;BME280;9511;54.242;12.448;2023-12-07T15:55:48;101796.25;;;-0.05;100.00
18765;BME280;9511;54.242;12.448;2023-12-07T15:58:15;101797.56;;;0.00;100.00
18765;BME280;9511;54.242;12.448;2023-12-07T16:00:45;101788.59;;;-0.04;100.00
18765;BME280;9511;54.242;12.448;2023-12-07T16:03:12;101789.75;;;0.00;100.00
18765;BME280;9511;54.242;12.448;2023-12-07T16:05:39;101783.50;;;-0.02;100.00
18765;BME280;9511;54.242;12.448;2023-12-07T16:08:07;101789.47;;;-0.03;100.00
18765;BME280;9511;54.242;12.448;2023-12-07T16:10:34;101790.28;;;-0.04;100.00
18765;BME280;9511;54.242;12.448;2023-12-07T16:13:02;101786.38;;;0.01;100.00
18765;BME280;9511;54.242;12.448;2023-12-07T16:15:29;101787.41;;;0.03;100.00
18765;BME280;9511;54.242;12.448;2023-12-07T16:17:58;101781.28;;;0.03;100.00
18765;BME280;9511;54.242;12.448;2023-12-07T16:20:25;101772.06;;;-0.04;100.00
18765;BME280;9511;54.242;12.448;2023-12-07T16:22:52;101773.88;;;-0.03;100.00
18765;BME280;9511;54.242;12.448;2023-12-07T16:25:19;101769.47;;;-0.04;100.00
18765;BME280;9511;54.242;12.448;2023-12-07T16:27:47;101777.91;;;-0.07;100.00
18765;BME280;9511;54.242;12.448;2023-12-07T16:30:14;101780.09;;;-0.01;100.00
18765;BME280;9511;54.242;12.448;2023-12-07T16:32:43;101779.88;;;-0.04;100.00
18765;BME280;9511;54.242;12.448;2023-12-07T16:35:13;101784.56;;;-0.10;100.00
18765;BME280;9511;54.242;12.448;2023-12-07T16:37:40;101783.25;;;-0.05;100.00
18765;BME280;9511;54.242;12.448;2023-12-07T16:40:08;101792.09;;;-0.03;100.00
18765;BME280;9511;54.242;12.448;2023-12-07T16:42:36;101793.91;;;-0.02;100.00
18765;BME280;9511;54.242;12.448;2023-12-07T16:45:05;101803.28;;;-0.04;100.00
18765;BME280;9511;54.242;12.448;2023-12-07T16:47:33;101809.25;;;-0.05;100.00
18765;BME280;9511;54.242;12.448;2023-12-07T16:50:00;101804.81;;;-0.06;100.00
18765;BME280;9511;54.242;12.448;2023-12-07T16:52:29;101809.00;;;-0.08;100.00